Time;durP1;ratioP1;P1;durP2;ratioP2;P2;SDS_P1;SDS_P2;PMS_P1;PMS_P2;Temp;Humidity;BMP_temperature;BMP_pressure;BME280_temperature;BME280_humidity;BME280_pressure;Samples;Min_cycle;Max_cycle;Signal;HPM_P1;HPM_P2
2022/03/27 00:01:58;;;;;;;64.70;12.90;;;;;;;;;;5037429;28;20026;-71
2022/03/27 00:04:23;;;;;;;45.07;14.40;;;;;;;;;;5041459;28;20327;-71
2022/03/27 00:06:49;;;;;;;43.35;13.88;;;;;;;;;;5039036;28;20272;-71
2022/03/27 00:09:15;;;;;;;41.47;13.57;;;;;;;;;;5033077;28;20365;-71
2022/03/27 00:11:40;;;;;;;41.53;13.18;;;;;;;;;;5036064;28;20055;-71
2022/03/27 00:14:05;;;;;;;43.93;13.17;;;;;;;;;;5042028;28;20440;-71
2022/03/27 00:16:31;;;;;;;41.95;14.50;;;;;;;;;;5039953;28;20266;-71
2022/03/27 00:18:56;;;;;;;45.58;14.93;;;;;;;;;;5037058;28;20039;-71
2022/03/27 00:21:21;;;;;;;39.87;14.07;;;;;;;;;;5039367;28;20498;-71
2022/03/27 00:23:47;;;;;;;45.50;13.63;;;;;;;;;;5039177;28;20374;-71
2022/03/27 00:26:13;;;;;;;49.15;13.45;;;;;;;;;;5039507;28;20019;-70
2022/03/27 00:28:38;;;;;;;42.78;13.15;;;;;;;;;;5038633;28;20415;-71
2022/03/27 00:31:04;;;;;;;47.78;14.73;;;;;;;;;;5056058;28;20033;-72
2022/03/27 00:33:30;;;;;;;46.22;14.10;;;;;;;;;;5041068;28;20094;-71
2022/03/27 00:35:55;;;;;;;43.13;15.35;;;;;;;;;;5036732;28;20037;-71
2022/03/27 00:38:20;;;;;;;43.95;14.50;;;;;;;;;;5033534;28;20047;-71
2022/03/27 00:40:46;;;;;;;42.90;15.90;;;;;;;;;;5039768;28;20025;-71
2022/03/27 00:43:11;;;;;;;42.58;14.60;;;;;;;;;;5039599;28;20478;-71
2022/03/27 00:45:36;;;;;;;49.67;15.63;;;;;;;;;;5039958;28;20216;-71
2022/03/27 00:48:01;;;;;;;46.08;16.55;;;;;;;;;;5039781;28;20029;-71
2022/03/27 00:50:27;;;;;;;46.70;15.20;;;;;;;;;;5039291;28;20036;-71
2022/03/27 00:52:52;;;;;;;45.05;14.95;;;;;;;;;;5041561;28;20029;-71
2022/03/27 00:55:17;;;;;;;47.28;16.17;;;;;;;;;;5042436;28;20028;-71
2022/03/27 00:57:42;;;;;;;40.60;15.93;;;;;;;;;;5041702;28;20017;-71
2022/03/27 01:00:10;;;;;;;37.00;14.80;;;;;;;;;;5039290;28;20025;-71
2022/03/27 01:02:36;;;;;;;40.03;15.40;;;;;;;;;;5042257;28;20534;-70
2022/03/27 01:05:07;;;;;;;49.35;16.70;;;;;;;;;;5038378;28;20044;-71
2022/03/27 01:07:32;;;;;;;47.75;15.63;;;;;;;;;;5039539;28;20036;-71
2022/03/27 01:09:57;;;;;;;48.78;16.15;;;;;;;;;;5045608;28;20024;-71
2022/03/27 01:12:31;;;;;;;59.75;17.27;;;;;;;;;;5047361;28;20788;-71
2022/03/27 01:14:58;;;;;;;47.65;16.67;;;;;;;;;;5038822;28;20276;-71
2022/03/27 01:17:24;;;;;;;49.38;16.58;;;;;;;;;;5043347;28;20283;-71
2022/03/27 01:19:52;;;;;;;47.70;15.75;;;;;;;;;;5042879;28;20682;-71
2022/03/27 01:22:17;;;;;;;57.70;18.02;;;;;;;;;;5036006;28;20029;-71
2022/03/27 01:24:43;;;;;;;47.65;15.65;;;;;;;;;;5040960;28;20348;-71
2022/03/27 01:27:09;;;;;;;63.55;18.95;;;;;;;;;;5039718;28;20033;-71
2022/03/27 01:29:34;;;;;;;67.07;19.63;;;;;;;;;;5039097;28;20079;-70
2022/03/27 01:31:59;;;;;;;63.50;20.50;;;;;;;;;;5041194;28;20438;-70
2022/03/27 01:34:25;;;;;;;71.80;21.30;;;;;;;;;;5041034;28;20278;-71
2022/03/27 01:36:50;;;;;;;73.07;22.48;;;;;;;;;;5037890;28;20033;-71
2022/03/27 01:39:16;;;;;;;75.63;22.00;;;;;;;;;;5038379;28;20440;-71
2022/03/27 01:41:41;;;;;;;57.30;18.95;;;;;;;;;;5035833;28;20278;-71
2022/03/27 01:44:07;;;;;;;57.33;19.30;;;;;;;;;;5034363;28;20025;-71
2022/03/27 01:46:37;;;;;;;72.65;22.05;;;;;;;;;;5036666;28;20025;-71
2022/03/27 01:49:03;;;;;;;58.97;18.27;;;;;;;;;;5045899;28;20028;-71
2022/03/27 01:51:29;;;;;;;66.60;19.42;;;;;;;;;;5041047;28;20032;-71
2022/03/27 01:53:54;;;;;;;54.20;19.02;;;;;;;;;;5041445;28;20025;-71
2022/03/27 01:56:19;;;;;;;58.65;20.00;;;;;;;;;;5039697;28;20047;-71
2022/03/27 01:58:45;;;;;;;58.92;17.83;;;;;;;;;;5042380;28;20029;-70
2022/03/27 02:01:10;;;;;;;57.47;18.60;;;;;;;;;;5038632;28;20032;-71
2022/03/27 02:03:35;;;;;;;56.08;18.17;;;;;;;;;;5041989;28;20032;-71
2022/03/27 02:06:02;;;;;;;51.15;17.55;;;;;;;;;;5038827;28;20475;-71
2022/03/27 02:08:27;;;;;;;46.95;17.20;;;;;;;;;;5037169;28;20024;-71
2022/03/27 02:10:52;;;;;;;52.60;19.10;;;;;;;;;;5035185;28;20372;-71
2022/03/27 02:13:22;;;;;;;51.90;18.17;;;;;;;;;;5038700;28;20032;-71
2022/03/27 02:15:47;;;;;;;59.20;20.10;;;;;;;;;;5039036;28;20834;-71
2022/03/27 02:18:13;;;;;;;65.72;21.10;;;;;;;;;;5036801;28;20033;-71
2022/03/27 02:20:39;;;;;;;61.05;19.42;;;;;;;;;;5046284;28;20219;-71
2022/03/27 02:23:05;;;;;;;65.15;19.90;;;;;;;;;;5041169;28;20025;-71
2022/03/27 02:25:30;;;;;;;63.22;20.55;;;;;;;;;;5038496;28;20040;-71
2022/03/27 02:27:55;;;;;;;61.57;20.17;;;;;;;;;;5042821;28;20655;-71
2022/03/27 02:30:20;;;;;;;61.97;19.75;;;;;;;;;;5041205;28;20276;-70
2022/03/27 02:32:47;;;;;;;68.20;20.33;;;;;;;;;;5039976;28;20160;-71
2022/03/27 02:35:13;;;;;;;63.97;20.13;;;;;;;;;;5033831;28;20398;-71
2022/03/27 02:37:38;;;;;;;62.30;20.77;;;;;;;;;;5033080;28;20036;-70
2022/03/27 02:40:04;;;;;;;58.25;19.52;;;;;;;;;;5037548;28;20074;-71
2022/03/27 02:42:29;;;;;;;56.90;19.10;;;;;;;;;;5040515;28;20476;-71
2022/03/27 02:44:54;;;;;;;53.55;17.15;;;;;;;;;;5039830;28;20100;-71
2022/03/27 02:47:19;;;;;;;52.95;17.30;;;;;;;;;;5040565;28;20313;-71
2022/03/27 02:49:44;;;;;;;50.15;18.00;;;;;;;;;;5044479;28;20274;-71
2022/03/27 02:52:10;;;;;;;55.22;18.42;;;;;;;;;;5041904;28;20043;-71
2022/03/27 02:54:35;;;;;;;63.78;20.13;;;;;;;;;;5040219;28;20278;-70
2022/03/27 02:57:01;;;;;;;62.50;20.45;;;;;;;;;;5035757;28;20040;-71
2022/03/27 02:59:27;;;;;;;68.60;22.08;;;;;;;;;;5038141;28;20597;-70
2022/03/27 03:01:52;;;;;;;55.03;20.15;;;;;;;;;;5041388;28;20059;-71
2022/03/27 03:04:17;;;;;;;60.80;20.92;;;;;;;;;;5035901;28;20034;-70
2022/03/27 03:06:42;;;;;;;61.03;19.45;;;;;;;;;;5036119;28;20099;-70
2022/03/27 03:09:07;;;;;;;64.13;21.20;;;;;;;;;;5039739;28;20046;-68
2022/03/27 03:11:33;;;;;;;60.17;21.98;;;;;;;;;;5040959;28;20052;-70
2022/03/27 03:13:58;;;;;;;65.95;21.40;;;;;;;;;;5039956;28;20482;-71
2022/03/27 03:16:25;;;;;;;59.15;19.63;;;;;;;;;;5032825;28;20020;-71
2022/03/27 03:18:50;;;;;;;62.75;20.35;;;;;;;;;;5036453;28;20021;-72
2022/03/27 03:21:16;;;;;;;69.68;22.33;;;;;;;;;;5037008;28;20027;-72
2022/03/27 03:23:41;;;;;;;61.90;20.15;;;;;;;;;;5042726;28;20024;-73
2022/03/27 03:26:06;;;;;;;58.78;18.58;;;;;;;;;;5038156;28;20020;-72
2022/03/27 03:28:32;;;;;;;57.13;18.05;;;;;;;;;;5031325;28;20022;-72
2022/03/27 03:30:57;;;;;;;56.28;18.30;;;;;;;;;;5035251;28;20021;-73
2022/03/27 03:33:22;;;;;;;63.65;21.15;;;;;;;;;;5033641;28;20458;-71
2022/03/27 03:35:48;;;;;;;57.90;18.23;;;;;;;;;;5038350;28;20028;-72
2022/03/27 03:38:13;;;;;;;65.75;17.15;;;;;;;;;;5031283;28;20024;-73
2022/03/27 03:40:40;;;;;;;63.95;17.58;;;;;;;;;;5036466;28;20053;-71
2022/03/27 03:43:05;;;;;;;59.80;18.38;;;;;;;;;;5037098;28;20417;-73
2022/03/27 03:45:30;;;;;;;55.80;17.40;;;;;;;;;;5039007;28;20032;-74
2022/03/27 03:47:55;;;;;;;61.63;17.65;;;;;;;;;;5037152;28;20269;-73
2022/03/27 03:50:21;;;;;;;55.60;15.52;;;;;;;;;;5039670;28;20532;-73
2022/03/27 03:52:46;;;;;;;61.80;18.08;;;;;;;;;;5038347;28;20013;-72
2022/03/27 03:55:11;;;;;;;62.83;16.45;;;;;;;;;;5037449;28;20078;-72
2022/03/27 03:57:37;;;;;;;63.03;17.50;;;;;;;;;;5034392;28;20025;-72
2022/03/27 04:00:02;;;;;;;62.43;16.90;;;;;;;;;;5038264;28;20131;-72
2022/03/27 04:02:27;;;;;;;73.28;19.67;;;;;;;;;;5034061;28;20624;-72
2022/03/27 04:04:52;;;;;;;74.80;21.45;;;;;;;;;;5037895;28;20060;-72
2022/03/27 04:07:18;;;;;;;68.55;18.23;;;;;;;;;;5036067;28;20354;-72
2022/03/27 04:09:43;;;;;;;72.50;18.67;;;;;;;;;;5039533;28;20394;-72
2022/03/27 04:12:08;;;;;;;74.00;17.90;;;;;;;;;;5038196;28;20269;-72
2022/03/27 04:14:36;;;;;;;75.80;20.75;;;;;;;;;;5040083;28;20293;-72
2022/03/27 04:17:04;;;;;;;81.93;19.58;;;;;;;;;;5042129;28;20471;-72
2022/03/27 04:19:29;;;;;;;70.72;19.95;;;;;;;;;;5036818;28;20061;-72
2022/03/27 04:21:55;;;;;;;72.40;18.33;;;;;;;;;;5037916;28;20116;-72
2022/03/27 04:24:20;;;;;;;74.43;19.95;;;;;;;;;;5037411;28;20067;-72
2022/03/27 04:26:45;;;;;;;73.20;18.90;;;;;;;;;;5044326;28;21326;-72
2022/03/27 04:29:10;;;;;;;86.35;20.08;;;;;;;;;;5039236;28;20262;-72
2022/03/27 04:31:36;;;;;;;70.32;18.38;;;;;;;;;;5041749;28;20302;-73
2022/03/27 04:34:01;;;;;;;76.05;19.58;;;;;;;;;;5040938;28;20759;-72
2022/03/27 04:36:26;;;;;;;70.93;17.52;;;;;;;;;;5035178;28;20093;-72
2022/03/27 04:38:51;;;;;;;76.43;18.53;;;;;;;;;;5043085;28;20507;-72
2022/03/27 04:41:17;;;;;;;91.45;21.20;;;;;;;;;;5041787;28;20263;-72
2022/03/27 04:43:47;;;;;;;84.22;20.08;;;;;;;;;;5044277;28;20442;-72
2022/03/27 04:46:12;;;;;;;78.38;18.77;;;;;;;;;;5040381;28;20060;-73
2022/03/27 04:48:37;;;;;;;86.07;20.50;;;;;;;;;;5037779;28;20108;-72
2022/03/27 04:51:02;;;;;;;93.18;21.92;;;;;;;;;;5038946;28;20702;-71
2022/03/27 04:53:27;;;;;;;90.30;21.60;;;;;;;;;;5043201;28;20032;-72
2022/03/27 04:55:53;;;;;;;88.65;20.98;;;;;;;;;;5042672;28;20450;-72
2022/03/27 04:58:18;;;;;;;83.97;19.77;;;;;;;;;;5045120;28;20116;-72
2022/03/27 05:00:44;;;;;;;87.70;20.92;;;;;;;;;;5039717;28;20487;-72
2022/03/27 05:03:09;;;;;;;81.55;20.50;;;;;;;;;;5041807;28;20024;-72
2022/03/27 05:05:34;;;;;;;89.43;20.25;;;;;;;;;;5035012;28;20029;-72
2022/03/27 05:08:00;;;;;;;82.93;19.40;;;;;;;;;;5039669;28;20270;-72
2022/03/27 05:10:25;;;;;;;95.57;21.48;;;;;;;;;;5038933;28;20036;-72
2022/03/27 05:12:50;;;;;;;82.18;19.90;;;;;;;;;;5042950;28;20516;-72
2022/03/27 05:15:16;;;;;;;99.10;23.08;;;;;;;;;;5040104;28;20058;-72
2022/03/27 05:17:44;;;;;;;90.82;21.45;;;;;;;;;;5042038;28;20032;-72
2022/03/27 05:20:10;;;;;;;89.78;21.85;;;;;;;;;;5041154;28;20495;-72
2022/03/27 05:22:36;;;;;;;86.75;21.45;;;;;;;;;;5040473;28;20061;-73
2022/03/27 05:25:01;;;;;;;88.65;20.10;;;;;;;;;;5040551;28;20028;-72
2022/03/27 05:27:26;;;;;;;103.67;24.13;;;;;;;;;;5034881;28;20021;-72
2022/03/27 05:29:51;;;;;;;86.93;19.73;;;;;;;;;;5041669;28;20274;-72
2022/03/27 05:32:17;;;;;;;87.55;20.13;;;;;;;;;;5039529;28;20270;-73
2022/03/27 05:34:42;;;;;;;83.20;19.77;;;;;;;;;;5044565;28;20277;-72
2022/03/27 05:37:07;;;;;;;84.68;20.80;;;;;;;;;;5036735;28;20044;-72
2022/03/27 05:39:33;;;;;;;95.18;19.63;;;;;;;;;;5036322;28;21336;-72
2022/03/27 05:41:58;;;;;;;82.57;19.05;;;;;;;;;;5042091;28;20277;-72
2022/03/27 05:44:23;;;;;;;88.53;19.47;;;;;;;;;;5047825;28;20030;-72
2022/03/27 05:46:48;;;;;;;82.25;18.80;;;;;;;;;;5037036;28;20764;-72
2022/03/27 05:49:13;;;;;;;73.60;19.37;;;;;;;;;;5039439;28;20025;-72
2022/03/27 05:51:39;;;;;;;62.92;18.48;;;;;;;;;;5043131;28;20332;-72
2022/03/27 05:54:04;;;;;;;70.50;18.33;;;;;;;;;;5042314;28;20393;-72
2022/03/27 05:56:29;;;;;;;73.03;17.77;;;;;;;;;;5042346;28;20483;-72
2022/03/27 05:58:55;;;;;;;66.32;17.05;;;;;;;;;;5035686;28;20345;-72
2022/03/27 06:01:20;;;;;;;67.93;17.88;;;;;;;;;;5038588;28;20062;-73
2022/03/27 06:03:46;;;;;;;69.38;17.58;;;;;;;;;;5032230;28;20398;-72
2022/03/27 06:06:11;;;;;;;70.07;19.05;;;;;;;;;;5041644;28;20831;-72
2022/03/27 06:08:36;;;;;;;66.82;16.85;;;;;;;;;;5045243;28;20021;-73
2022/03/27 06:11:01;;;;;;;71.43;17.85;;;;;;;;;;5038754;28;20293;-72
2022/03/27 06:13:26;;;;;;;65.72;18.05;;;;;;;;;;5038828;28;20273;-72
2022/03/27 06:15:52;;;;;;;66.45;17.80;;;;;;;;;;5047686;28;20406;-73
2022/03/27 06:18:17;;;;;;;65.82;17.40;;;;;;;;;;5034513;28;20365;-72
2022/03/27 06:20:43;;;;;;;56.97;16.13;;;;;;;;;;5034606;28;20033;-72
2022/03/27 06:23:08;;;;;;;66.90;16.80;;;;;;;;;;5037105;28;20031;-74
2022/03/27 06:25:34;;;;;;;68.53;18.98;;;;;;;;;;5037649;28;20021;-72
2022/03/27 06:27:59;;;;;;;63.17;16.77;;;;;;;;;;5035331;28;20371;-72
2022/03/27 06:30:26;;;;;;;61.22;17.63;;;;;;;;;;5039679;28;20489;-72
2022/03/27 06:32:51;;;;;;;58.58;15.98;;;;;;;;;;5036148;28;20024;-73
2022/03/27 06:35:17;;;;;;;56.20;16.20;;;;;;;;;;5044414;28;20135;-72
2022/03/27 06:37:43;;;;;;;59.38;17.15;;;;;;;;;;5034438;28;20032;-72
2022/03/27 06:40:09;;;;;;;53.35;15.48;;;;;;;;;;5040837;28;20071;-72
2022/03/27 06:42:34;;;;;;;65.40;16.90;;;;;;;;;;5030167;28;20048;-72
2022/03/27 06:45:00;;;;;;;60.00;16.45;;;;;;;;;;5035383;28;20044;-72
2022/03/27 06:47:26;;;;;;;54.63;16.02;;;;;;;;;;5041331;28;20522;-72
2022/03/27 06:49:52;;;;;;;52.85;14.10;;;;;;;;;;5033008;28;20093;-72
2022/03/27 06:52:18;;;;;;;53.58;16.90;;;;;;;;;;5034450;28;20423;-72
2022/03/27 06:54:43;;;;;;;52.33;14.75;;;;;;;;;;5039043;28;20060;-72
2022/03/27 06:57:08;;;;;;;57.03;16.73;;;;;;;;;;5037169;28;20913;-72
2022/03/27 07:05:02;;;;;;;48.35;14.10;;;;;;;;;;5036372;28;20624;-72
2022/03/27 07:07:27;;;;;;;52.75;14.75;;;;;;;;;;5044245;28;20028;-73
2022/03/27 07:09:52;;;;;;;47.75;13.88;;;;;;;;;;5035214;28;20021;-72
2022/03/27 07:12:18;;;;;;;54.97;15.52;;;;;;;;;;5036526;28;20103;-72
2022/03/27 07:14:43;;;;;;;52.63;14.98;;;;;;;;;;5036133;28;20286;-73
2022/03/27 07:17:08;;;;;;;49.13;14.53;;;;;;;;;;5033924;28;20959;-72
2022/03/27 07:19:35;;;;;;;44.33;12.93;;;;;;;;;;5032975;28;20412;-72
2022/03/27 07:22:00;;;;;;;45.10;14.75;;;;;;;;;;5033997;28;20028;-72
2022/03/27 07:24:25;;;;;;;54.03;15.68;;;;;;;;;;5037518;28;20488;-72
2022/03/27 07:26:51;;;;;;;55.47;15.60;;;;;;;;;;5037350;28;20036;-72
2022/03/27 07:29:16;;;;;;;59.17;16.73;;;;;;;;;;5033374;28;20494;-73
2022/03/27 07:31:42;;;;;;;67.00;17.42;;;;;;;;;;5038442;28;20743;-73
2022/03/27 07:34:07;;;;;;;61.03;16.75;;;;;;;;;;5031613;28;20024;-73
2022/03/27 07:36:34;;;;;;;53.08;14.90;;;;;;;;;;5033858;28;20400;-72
2022/03/27 07:39:00;;;;;;;57.88;16.25;;;;;;;;;;5034502;28;20020;-72
2022/03/27 07:41:25;;;;;;;51.05;16.00;;;;;;;;;;5033292;28;20028;-72
2022/03/27 07:43:50;;;;;;;59.57;16.63;;;;;;;;;;5037244;28;20025;-72
2022/03/27 07:46:15;;;;;;;56.67;16.55;;;;;;;;;;5036943;28;20718;-72
2022/03/27 07:48:40;;;;;;;58.85;17.00;;;;;;;;;;5033448;28;20275;-72
2022/03/27 07:51:06;;;;;;;57.60;16.75;;;;;;;;;;5032817;28;20274;-72
2022/03/27 07:53:31;;;;;;;62.72;16.42;;;;;;;;;;5043797;28;21001;-71
2022/03/27 07:55:56;;;;;;;57.78;16.60;;;;;;;;;;5031312;28;21566;-73
2022/03/27 07:58:22;;;;;;;57.42;16.52;;;;;;;;;;5044708;28;20285;-72
2022/03/27 08:00:47;;;;;;;55.08;15.98;;;;;;;;;;5037721;28;20293;-72
2022/03/27 08:03:12;;;;;;;56.28;17.00;;;;;;;;;;5038255;28;20680;-71
2022/03/27 08:05:37;;;;;;;58.60;17.45;;;;;;;;;;5037507;28;20036;-73
2022/03/27 08:08:02;;;;;;;59.67;17.17;;;;;;;;;;5037163;28;20017;-71
2022/03/27 08:10:28;;;;;;;56.78;15.98;;;;;;;;;;5039429;28;20033;-71
2022/03/27 08:12:53;;;;;;;57.88;17.70;;;;;;;;;;5036232;28;20028;-73
2022/03/27 08:15:19;;;;;;;59.20;18.00;;;;;;;;;;5040919;28;20016;-72
2022/03/27 08:17:44;;;;;;;50.97;15.55;;;;;;;;;;5042331;28;20145;-72
2022/03/27 08:20:10;;;;;;;68.32;18.40;;;;;;;;;;5039178;28;20389;-72
2022/03/27 08:22:35;;;;;;;55.80;16.77;;;;;;;;;;5036407;28;20514;-72
2022/03/27 08:25:00;;;;;;;61.00;19.02;;;;;;;;;;5040678;28;20030;-71
2022/03/27 08:27:27;;;;;;;55.25;17.13;;;;;;;;;;5038510;28;20474;-71
2022/03/27 08:29:52;;;;;;;53.97;16.98;;;;;;;;;;5042556;28;20290;-71
2022/03/27 08:32:18;;;;;;;50.43;16.30;;;;;;;;;;5038527;28;20022;-71
2022/03/27 08:34:44;;;;;;;50.95;17.80;;;;;;;;;;5041784;28;20051;-71
2022/03/27 08:37:10;;;;;;;52.30;18.65;;;;;;;;;;5031638;28;20467;-72
2022/03/27 08:39:36;;;;;;;54.45;18.83;;;;;;;;;;5039793;28;20037;-72
2022/03/27 08:42:01;;;;;;;52.35;17.08;;;;;;;;;;5031724;28;20025;-71
2022/03/27 08:44:27;;;;;;;54.38;15.95;;;;;;;;;;5032332;28;20029;-72
2022/03/27 08:46:54;;;;;;;47.83;18.13;;;;;;;;;;5040275;28;20021;-72
2022/03/27 08:49:27;;;;;;;55.95;17.77;;;;;;;;;;5040872;28;20142;-71
2022/03/27 08:51:52;;;;;;;54.42;16.90;;;;;;;;;;5050520;28;20433;-71
2022/03/27 08:54:21;;;;;;;51.00;18.13;;;;;;;;;;5031526;28;20028;-72
2022/03/27 08:56:49;;;;;;;46.47;16.48;;;;;;;;;;5035726;28;20051;-72
2022/03/27 08:59:15;;;;;;;48.47;16.67;;;;;;;;;;5045658;28;20032;-71
2022/03/27 09:01:42;;;;;;;52.80;17.00;;;;;;;;;;5042464;28;20344;-72
2022/03/27 09:04:07;;;;;;;54.35;18.00;;;;;;;;;;5031651;28;20091;-76
2022/03/27 09:06:33;;;;;;;51.60;17.63;;;;;;;;;;5038539;28;20430;-73
2022/03/27 09:08:58;;;;;;;52.30;17.65;;;;;;;;;;5033847;28;20026;-72
2022/03/27 09:11:24;;;;;;;52.25;17.15;;;;;;;;;;5037094;28;20029;-71
2022/03/27 09:13:50;;;;;;;54.38;18.25;;;;;;;;;;5034574;28;20018;-74
2022/03/27 09:16:16;;;;;;;53.70;18.77;;;;;;;;;;5039484;28;20124;-72
2022/03/27 09:18:41;;;;;;;52.17;20.08;;;;;;;;;;5043412;28;20550;-73
2022/03/27 09:21:06;;;;;;;52.30;18.37;;;;;;;;;;5040119;28;20029;-75
2022/03/27 09:23:31;;;;;;;64.18;19.35;;;;;;;;;;5039494;28;20292;-73
2022/03/27 09:26:00;;;;;;;59.47;18.90;;;;;;;;;;5035704;28;20033;-75
2022/03/27 09:28:33;;;;;;;59.45;18.15;;;;;;;;;;5046377;28;20107;-73
2022/03/27 09:31:01;;;;;;;50.50;18.05;;;;;;;;;;5039674;28;20464;-73
2022/03/27 09:33:33;;;;;;;59.20;19.23;;;;;;;;;;5046425;28;20526;-73
2022/03/27 09:36:06;;;;;;;52.65;17.38;;;;;;;;;;5038929;28;20044;-72
2022/03/27 09:38:31;;;;;;;56.65;17.98;;;;;;;;;;5036968;28;20036;-72
2022/03/27 09:40:56;;;;;;;52.17;17.63;;;;;;;;;;5039088;28;20402;-72
2022/03/27 09:43:22;;;;;;;56.90;18.10;;;;;;;;;;5040651;28;20864;-71
2022/03/27 09:46:03;;;;;;;56.55;17.63;;;;;;;;;;5044520;28;20035;-73
2022/03/27 09:48:28;;;;;;;46.63;16.27;;;;;;;;;;5036640;28;20376;-73
2022/03/27 09:50:54;;;;;;;53.15;17.23;;;;;;;;;;5037926;28;20032;-72
2022/03/27 09:53:30;;;;;;;58.08;17.92;;;;;;;;;;5037120;28;20017;-72
2022/03/27 09:56:01;;;;;;;53.72;18.08;;;;;;;;;;5034723;28;20039;-72
2022/03/27 09:58:32;;;;;;;49.10;16.55;;;;;;;;;;5039375;28;20059;-72
2022/03/27 10:01:07;;;;;;;51.80;16.77;;;;;;;;;;5043515;28;20075;-72
2022/03/27 10:03:32;;;;;;;51.55;18.83;;;;;;;;;;5040970;28;20074;-72
2022/03/27 10:05:58;;;;;;;47.20;15.37;;;;;;;;;;5040005;28;20032;-73
2022/03/27 10:08:23;;;;;;;51.05;16.80;;;;;;;;;;5038113;28;20033;-73
2022/03/27 10:10:49;;;;;;;43.10;14.73;;;;;;;;;;5043501;28;20025;-73
2022/03/27 10:13:14;;;;;;;49.05;16.65;;;;;;;;;;5043306;28;20266;-74
2022/03/27 10:15:39;;;;;;;46.33;16.35;;;;;;;;;;5040171;28;20029;-72
2022/03/27 10:18:10;;;;;;;51.53;17.27;;;;;;;;;;5039930;28;20025;-77
2022/03/27 10:20:36;;;;;;;48.40;14.18;;;;;;;;;;5035080;28;20277;-75
2022/03/27 10:23:03;;;;;;;47.40;14.35;;;;;;;;;;5039178;28;20032;-71
2022/03/27 10:25:37;;;;;;;41.55;12.20;;;;;;;;;;5041104;28;20086;-70
2022/03/27 10:28:03;;;;;;;47.15;14.52;;;;;;;;;;5038785;28;20025;-73
2022/03/27 10:30:29;;;;;;;41.03;13.52;;;;;;;;;;5044738;28;20025;-75
2022/03/27 10:32:56;;;;;;;44.67;13.88;;;;;;;;;;5039819;28;20017;-72
2022/03/27 10:35:27;;;;;;;35.47;13.05;;;;;;;;;;5043473;28;20049;-72
2022/03/27 10:37:53;;;;;;;44.78;13.60;;;;;;;;;;5060502;28;20196;-72
2022/03/27 10:40:47;;;;;;;45.92;14.45;;;;;;;;;;5044274;28;20613;-72
2022/03/27 10:43:14;;;;;;;;;;;;;;;;;;5032553;28;20029;-72
2022/03/27 10:45:39;;;;;;;43.25;13.60;;;;;;;;;;5040982;28;20325;-73
2022/03/27 10:48:14;;;;;;;41.75;13.23;;;;;;;;;;5042512;28;20098;-71
2022/03/27 10:50:45;;;;;;;43.05;14.90;;;;;;;;;;5035270;28;20064;-72
2022/03/27 10:53:11;;;;;;;41.88;14.15;;;;;;;;;;5034989;28;20387;-71
2022/03/27 10:55:38;;;;;;;45.20;14.32;;;;;;;;;;5039952;28;20033;-72
2022/03/27 10:58:23;;;;;;;46.95;15.05;;;;;;;;;;5034468;28;20107;-72
2022/03/27 11:00:48;;;;;;;45.15;15.70;;;;;;;;;;5037430;28;20395;-72
2022/03/27 11:03:33;;;;;;;40.83;11.73;;;;;;;;;;5035993;28;20029;-71
2022/03/27 11:05:58;;;;;;;51.15;17.17;;;;;;;;;;5037990;28;20041;-72
2022/03/27 11:08:25;;;;;;;43.57;15.07;;;;;;;;;;5041041;28;20030;-72
2022/03/27 11:10:55;;;;;;;46.97;15.15;;;;;;;;;;5036454;28;20393;-71
2022/03/27 11:13:39;;;;;;;47.03;15.98;;;;;;;;;;5031917;28;20028;-71
2022/03/27 11:16:04;;;;;;;50.38;15.80;;;;;;;;;;5054393;28;20059;-72
2022/03/27 11:18:35;;;;;;;43.38;15.50;;;;;;;;;;5037425;28;20033;-72
2022/03/27 11:21:01;;;;;;;46.00;19.05;;;;;;;;;;5056238;28;20043;-72
2022/03/27 11:23:27;;;;;;;45.60;16.27;;;;;;;;;;5039874;28;20037;-72
2022/03/27 11:25:52;;;;;;;41.38;15.27;;;;;;;;;;5041883;28;20372;-72
2022/03/27 11:28:18;;;;;;;42.90;15.93;;;;;;;;;;5042596;28;20437;-72
2022/03/27 11:30:49;;;;;;;40.00;14.98;;;;;;;;;;5041280;28;20074;-71
2022/03/27 11:33:20;;;;;;;42.75;15.00;;;;;;;;;;5038295;28;20020;-72
2022/03/27 11:36:01;;;;;;;42.35;14.77;;;;;;;;;;5033436;28;20033;-72
2022/03/27 11:38:27;;;;;;;55.80;14.15;;;;;;;;;;5029513;28;20020;-72
2022/03/27 11:40:55;;;;;;;40.45;14.45;;;;;;;;;;5042122;28;20022;-72
2022/03/27 11:43:29;;;;;;;39.80;15.93;;;;;;;;;;5032350;28;20143;-73
2022/03/27 11:45:56;;;;;;;50.67;15.38;;;;;;;;;;5038886;28;20017;-74
2022/03/27 11:48:21;;;;;;;45.83;15.60;;;;;;;;;;5038922;28;20032;-75
2022/03/27 11:50:46;;;;;;;41.70;15.57;;;;;;;;;;5034950;28;20025;-77
2022/03/27 11:53:12;;;;;;;42.97;17.75;;;;;;;;;;5032817;28;20507;-74
2022/03/27 11:55:39;;;;;;;44.88;16.10;;;;;;;;;;5035966;28;20037;-77
2022/03/27 11:58:07;;;;;;;49.20;15.98;;;;;;;;;;5037432;28;20059;-78
2022/03/27 12:00:35;;;;;;;47.28;14.32;;;;;;;;;;5037017;28;20102;-75
2022/03/27 12:03:01;;;;;;;43.33;15.40;;;;;;;;;;5040548;28;20032;-75
2022/03/27 12:05:37;;;;;;;41.35;15.63;;;;;;;;;;5039693;28;20474;-71
2022/03/27 12:08:03;;;;;;;31.60;13.38;;;;;;;;;;5051357;28;20017;-72
2022/03/27 12:10:37;;;;;;;36.95;14.30;;;;;;;;;;5035575;28;20025;-72
2022/03/27 12:13:04;;;;;;;40.22;14.50;;;;;;;;;;5036577;28;20021;-72
2022/03/27 12:15:39;;;;;;;50.00;15.85;;;;;;;;;;5038594;28;20025;-73
2022/03/27 12:18:04;;;;;;;39.20;15.25;;;;;;;;;;5039501;28;20091;-72
2022/03/27 12:20:39;;;;;;;43.55;14.90;;;;;;;;;;5035338;28;20392;-73
2022/03/27 12:23:15;;;;;;;38.75;14.02;;;;;;;;;;5035995;28;20513;-73
2022/03/27 12:25:40;;;;;;;45.05;15.57;;;;;;;;;;5037457;28;20024;-72
2022/03/27 12:30:50;;;;;;;39.30;14.18;;;;;;;;;;5039359;28;20079;-72
2022/03/27 12:33:23;;;;;;;36.33;14.73;;;;;;;;;;5036382;28;20029;-72
2022/03/27 12:35:48;;;;;;;;;;;;;;;;;;5036555;28;20025;-72
2022/03/27 12:38:28;;;;;;;29.95;12.63;;;;;;;;;;5036619;28;20130;-74
2022/03/27 12:40:53;;;;;;;33.05;12.80;;;;;;;;;;5036815;28;20029;-72
2022/03/27 12:43:18;;;;;;;35.70;14.32;;;;;;;;;;5039993;28;20363;-73
2022/03/27 12:45:44;;;;;;;39.17;13.18;;;;;;;;;;5039284;28;20041;-73
2022/03/27 12:48:20;;;;;;;26.92;12.07;;;;;;;;;;5036248;28;20063;-73
2022/03/27 12:50:50;;;;;;;32.65;13.05;;;;;;;;;;5040683;28;20025;-73
2022/03/27 12:53:18;;;;;;;30.77;12.95;;;;;;;;;;5040928;28;20021;-72
2022/03/27 12:55:48;;;;;;;34.22;13.48;;;;;;;;;;5046179;28;20032;-72
2022/03/27 12:58:17;;;;;;;31.00;12.98;;;;;;;;;;5039062;28;20032;-72
2022/03/27 13:00:43;;;;;;;33.17;12.30;;;;;;;;;;5041959;28;20025;-72
2022/03/27 13:03:18;;;;;;;34.17;11.73;;;;;;;;;;5038657;28;20032;-71
2022/03/27 13:06:03;;;;;;;24.73;11.75;;;;;;;;;;5040928;28;20018;-74
2022/03/27 13:08:32;;;;;;;31.40;11.45;;;;;;;;;;5043805;28;20021;-73
2022/03/27 13:11:07;;;;;;;29.25;11.30;;;;;;;;;;5041109;28;20036;-72
2022/03/27 13:13:35;;;;;;;26.55;11.20;;;;;;;;;;5044475;28;20036;-72
2022/03/27 13:16:16;;;;;;;36.33;12.60;;;;;;;;;;5042990;28;20095;-72
2022/03/27 13:18:41;;;;;;;27.38;12.45;;;;;;;;;;5045856;28;20464;-73
2022/03/27 13:21:14;;;;;;;29.67;11.40;;;;;;;;;;5038254;28;20033;-73
2022/03/27 13:23:39;;;;;;;29.15;12.48;;;;;;;;;;5033847;28;20786;-73
2022/03/27 13:26:04;;;;;;;34.95;12.75;;;;;;;;;;5040930;28;20449;-72
2022/03/27 13:28:29;;;;;;;27.43;11.47;;;;;;;;;;5037670;28;20064;-73
2022/03/27 13:30:55;;;;;;;22.58;10.43;;;;;;;;;;5036162;28;20476;-73
2022/03/27 13:33:20;;;;;;;25.85;10.52;;;;;;;;;;5039761;28;20032;-71
2022/03/27 13:35:49;;;;;;;29.42;11.48;;;;;;;;;;5038675;28;20025;-73
2022/03/27 13:38:14;;;;;;;37.03;11.18;;;;;;;;;;5037871;28;20043;-74
2022/03/27 13:43:24;;;;;;;20.65;8.73;;;;;;;;;;5040035;28;21349;-72
2022/03/27 13:45:49;;;;;;;23.47;10.07;;;;;;;;;;5037523;28;20037;-72
2022/03/27 13:48:14;;;;;;;23.63;9.65;;;;;;;;;;5044355;28;20368;-73
2022/03/27 13:50:39;;;;;;;29.17;11.50;;;;;;;;;;5042098;28;20435;-73
2022/03/27 13:53:05;;;;;;;28.92;10.25;;;;;;;;;;5034658;28;20017;-74
2022/03/27 13:55:30;;;;;;;25.05;9.10;;;;;;;;;;5035674;28;20392;-72
2022/03/27 13:57:55;;;;;;;29.37;10.90;;;;;;;;;;5037416;28;20034;-73
2022/03/27 14:00:21;;;;;;;29.50;10.77;;;;;;;;;;5041171;28;20028;-73
2022/03/27 14:02:46;;;;;;;29.65;10.98;;;;;;;;;;5036048;28;20509;-73
2022/03/27 14:05:12;;;;;;;28.17;11.45;;;;;;;;;;5039469;28;20027;-72
2022/03/27 14:07:37;;;;;;;25.85;10.07;;;;;;;;;;5029612;28;20040;-71
2022/03/27 14:10:03;;;;;;;23.35;11.15;;;;;;;;;;5034480;28;20485;-72
2022/03/27 14:12:28;;;;;;;25.45;10.68;;;;;;;;;;5038683;28;20037;-72
2022/03/27 14:14:53;;;;;;;28.67;10.70;;;;;;;;;;5042977;28;20075;-72
2022/03/27 14:17:18;;;;;;;24.33;9.73;;;;;;;;;;5039817;28;20032;-72
2022/03/27 14:19:44;;;;;;;26.77;9.40;;;;;;;;;;5033841;28;20120;-72
2022/03/27 14:22:09;;;;;;;27.73;9.23;;;;;;;;;;5040555;28;20284;-71
2022/03/27 14:24:34;;;;;;;27.93;10.93;;;;;;;;;;5035170;28;20029;-71
2022/03/27 14:26:59;;;;;;;30.55;10.98;;;;;;;;;;5039516;28;20404;-72